createdAt,value
2023-02-02T00:00:36.324Z,100275.47
2023-02-02T00:03:24.085Z,100300.44
2023-02-02T00:06:16.670Z,100296.09
2023-02-02T00:09:04.557Z,100300.84
2023-02-02T00:11:52.279Z,100299.13
2023-02-02T00:14:42.684Z,100308.31
2023-02-02T00:17:30.234Z,100302.66
2023-02-02T00:20:18.113Z,100305.38
2023-02-02T00:23:08.447Z,100301.16
2023-02-02T00:25:56.250Z,100281.94
2023-02-02T00:28:43.947Z,100309.03
2023-02-02T00:31:31.726Z,100307.31
2023-02-02T00:34:19.617Z,100310.06
2023-02-02T00:37:07.704Z,100310.66
2023-02-02T00:39:55.458Z,100318.03
2023-02-02T00:42:43.766Z,100317.53
2023-02-02T00:45:31.640Z,100312.38
2023-02-02T00:48:19.414Z,100320.13
2023-02-02T00:51:07.159Z,100316.38
2023-02-02T00:53:56.589Z,100312.72
2023-02-02T00:56:44.557Z,100309.16
2023-02-02T00:59:32.816Z,100309.41
2023-02-02T01:02:20.685Z,100306.19
2023-02-02T01:05:08.823Z,100285.16
2023-02-02T01:07:56.424Z,100302.34
2023-02-02T01:10:44.157Z,100235.56
2023-02-02T01:13:32.020Z,100299.88
2023-02-02T01:16:22.681Z,100300.81
2023-02-02T01:19:12.717Z,100275.53
2023-02-02T01:22:01.842Z,100296.47
2023-02-02T01:24:51.162Z,100256.00
2023-02-02T01:27:38.941Z,100268.97
2023-02-02T01:30:26.659Z,100269.81
2023-02-02T01:33:17.291Z,100217.16
2023-02-02T01:36:07.815Z,100267.19
2023-02-02T01:38:57.832Z,100268.81
2023-02-02T01:41:45.474Z,100263.75
2023-02-02T01:44:51.356Z,100262.31
2023-02-02T01:47:46.999Z,100259.41
2023-02-02T01:50:36.025Z,100258.97
2023-02-02T01:53:24.308Z,100253.25
2023-02-02T01:56:17.963Z,100244.47
2023-02-02T01:59:07.275Z,100241.22
2023-02-02T02:01:55.768Z,100229.91
2023-02-02T02:04:44.040Z,100235.16
2023-02-02T02:07:31.962Z,100198.81
2023-02-02T02:10:20.057Z,100241.94
2023-02-02T02:13:09.765Z,100228.19
2023-02-02T02:16:20.988Z,100237.91
2023-02-02T02:20:02.329Z,100244.06
2023-02-02T02:23:28.778Z,100237.88
2023-02-02T02:26:38.102Z,100236.09
2023-02-02T02:29:36.154Z,100232.63
2023-02-02T02:32:58.615Z,100237.50
2023-02-02T02:36:15.732Z,100243.75
2023-02-02T02:39:31.833Z,100249.09
2023-02-02T02:42:25.563Z,100240.22
2023-02-02T02:45:14.524Z,100242.97
2023-02-02T02:48:03.443Z,100249.41
2023-02-02T02:50:52.039Z,100244.22
2023-02-02T02:53:39.692Z,100248.75
2023-02-02T02:56:44.687Z,100230.38
2023-02-02T02:59:59.941Z,100249.38
2023-02-02T03:03:02.726Z,100226.09
2023-02-02T03:06:02.113Z,100253.31
2023-02-02T03:08:54.001Z,100258.28
2023-02-02T03:11:41.823Z,100262.41
2023-02-02T03:14:35.845Z,100267.63
2023-02-02T03:17:25.588Z,100264.47
2023-02-02T03:20:14.079Z,100269.41
2023-02-02T03:23:01.731Z,100269.94
2023-02-02T03:25:49.835Z,100273.25
2023-02-02T03:28:37.698Z,100260.19
2023-02-02T03:31:28.862Z,100279.25
2023-02-02T03:34:16.455Z,100267.69
2023-02-02T03:37:04.250Z,100265.94
2023-02-02T03:39:53.731Z,100245.13
2023-02-02T03:42:41.538Z,100236.25
2023-02-02T03:45:29.713Z,100259.78
2023-02-02T03:48:17.993Z,100254.75
2023-02-02T03:51:12.559Z,100257.34
2023-02-02T03:54:01.460Z,100255.41
2023-02-02T03:56:49.602Z,100257.56
2023-02-02T03:59:39.540Z,100229.72
2023-02-02T04:02:29.553Z,100245.84
2023-02-02T04:05:17.512Z,100237.22
2023-02-02T04:08:05.535Z,100234.00
2023-02-02T04:10:53.391Z,100243.44
2023-02-02T04:13:43.556Z,100245.69
2023-02-02T04:16:35.125Z,100231.31
2023-02-02T04:19:23.810Z,100253.66
2023-02-02T04:22:11.500Z,100252.78
2023-02-02T04:25:06.234Z,100237.25
2023-02-02T04:27:54.455Z,100259.50
2023-02-02T04:30:42.397Z,100233.22
2023-02-02T04:33:35.501Z,100248.38
2023-02-02T04:36:23.628Z,100256.88
2023-02-02T04:39:13.012Z,100243.94
2023-02-02T04:42:01.301Z,100270.44
2023-02-02T04:44:50.762Z,100211.03
2023-02-02T04:47:38.417Z,100253.78
2023-02-02T04:50:26.150Z,100262.38
2023-02-02T04:53:16.756Z,100260.03
2023-02-02T04:56:15.740Z,100269.00
2023-02-02T04:59:03.478Z,100279.97
2023-02-02T05:01:51.281Z,100276.50
2023-02-02T05:04:38.947Z,100290.56
2023-02-02T05:07:30.807Z,100297.41
2023-02-02T05:10:18.435Z,100296.41
2023-02-02T05:13:09.627Z,100292.06
2023-02-02T05:15:57.270Z,100314.69
2023-02-02T05:18:53.592Z,100291.75
2023-02-02T05:21:51.392Z,100305.75
2023-02-02T05:24:45.013Z,100295.81
2023-02-02T05:27:33.258Z,100295.34
2023-02-02T05:30:21.122Z,100295.34
2023-02-02T05:33:13.826Z,100305.50
2023-02-02T05:36:01.814Z,100298.44
2023-02-02T05:38:49.356Z,100296.59
2023-02-02T05:41:40.096Z,100302.56
2023-02-02T05:44:27.825Z,100313.66
2023-02-02T05:47:16.609Z,100306.25
2023-02-02T05:50:04.402Z,100310.63
2023-02-02T05:52:52.243Z,100235.03
2023-02-02T05:55:39.945Z,100317.03
2023-02-02T05:58:30.300Z,100321.91
2023-02-02T06:01:20.940Z,100315.81
2023-02-02T06:04:08.896Z,100265.16
2023-02-02T06:06:56.637Z,100316.63
2023-02-02T06:09:48.303Z,100275.84
2023-02-02T06:12:38.421Z,100326.75
2023-02-02T06:15:27.955Z,100328.06
2023-02-02T06:18:17.662Z,100317.31
2023-02-02T06:21:07.078Z,100313.78
2023-02-02T06:23:56.683Z,100319.84
2023-02-02T06:26:44.523Z,100317.34
2023-02-02T06:29:32.115Z,100321.47
2023-02-02T06:32:19.906Z,100321.47
2023-02-02T06:35:11.357Z,100301.97
2023-02-02T06:38:01.784Z,100297.56
2023-02-02T06:40:49.575Z,100311.84
2023-02-02T06:43:41.924Z,100310.94
2023-02-02T06:46:29.664Z,100315.97
2023-02-02T06:49:17.526Z,100300.78
2023-02-02T06:52:05.440Z,100301.28
2023-02-02T06:54:56.339Z,100307.03
2023-02-02T06:57:46.831Z,100285.44
2023-02-02T07:00:39.403Z,100313.72
2023-02-02T07:03:26.951Z,100313.28
2023-02-02T07:06:26.976Z,100304.59
2023-02-02T07:09:14.549Z,100291.53
2023-02-02T07:12:05.177Z,100292.97
2023-02-02T07:14:53.502Z,100255.25
2023-02-02T07:17:44.483Z,100253.31
2023-02-02T07:20:32.296Z,100291.78
2023-02-02T07:23:26.499Z,100274.69
2023-02-02T07:26:15.217Z,100264.22
2023-02-02T07:29:06.833Z,100286.81
2023-02-02T07:31:54.549Z,100251.00
2023-02-02T07:34:45.447Z,100269.50
2023-02-02T07:37:33.079Z,100274.94
2023-02-02T07:40:30.161Z,100265.13
2023-02-02T07:43:19.704Z,100273.53
2023-02-02T07:46:10.398Z,100274.09
2023-02-02T07:48:58.290Z,100268.03
2023-02-02T07:51:49.589Z,100266.84
2023-02-02T07:54:40.907Z,100270.06
2023-02-02T07:57:30.793Z,100251.03
2023-02-02T08:00:23.860Z,100245.91
2023-02-02T08:03:12.762Z,100228.69
2023-02-02T08:06:00.758Z,100238.63
2023-02-02T08:08:49.474Z,100222.47
2023-02-02T08:11:38.554Z,100236.81
2023-02-02T08:14:26.403Z,100240.31
2023-02-02T08:17:14.391Z,100245.53
2023-02-02T08:20:02.324Z,100259.63
2023-02-02T08:22:49.967Z,100253.84
2023-02-02T08:25:46.054Z,100249.47
2023-02-02T08:28:35.496Z,100250.91
2023-02-02T08:31:44.031Z,100253.44
2023-02-02T08:34:34.929Z,100261.44
2023-02-02T08:37:22.637Z,100241.94
2023-02-02T08:40:10.978Z,100239.56
2023-02-02T08:43:00.081Z,100244.50
2023-02-02T08:46:03.247Z,100236.31
2023-02-02T08:48:52.821Z,100238.06
2023-02-02T08:51:43.638Z,100225.16
2023-02-02T08:54:31.516Z,100224.41
2023-02-02T08:57:19.134Z,100222.28
2023-02-02T09:00:07.505Z,100210.53
2023-02-02T09:02:57.413Z,100220.78
2023-02-02T09:05:45.201Z,100214.09
2023-02-02T09:08:35.494Z,100164.44
2023-02-02T09:11:23.508Z,100203.47
2023-02-02T09:14:13.328Z,100215.34
2023-02-02T09:17:02.422Z,100213.09
2023-02-02T09:19:50.495Z,100204.63
2023-02-02T09:22:41.539Z,100213.56
2023-02-02T09:25:29.242Z,100202.75
2023-02-02T09:28:16.981Z,100181.91
2023-02-02T09:31:04.854Z,100207.50
2023-02-02T09:33:52.656Z,100206.91
2023-02-02T09:36:40.923Z,100199.75
2023-02-02T09:39:28.656Z,100196.34
2023-02-02T09:42:31.900Z,100197.13
2023-02-02T09:45:49.103Z,100189.28
2023-02-02T09:48:52.183Z,100178.16
2023-02-02T09:51:45.075Z,100179.28
2023-02-02T09:54:42.891Z,100168.22
2023-02-02T09:57:41.825Z,100176.66
2023-02-02T10:00:42.963Z,100166.34
2023-02-02T10:03:48.424Z,100158.31
2023-02-02T10:06:54.885Z,100172.41
2023-02-02T10:09:51.056Z,100146.78
2023-02-02T10:12:48.103Z,100158.69
2023-02-02T10:16:03.046Z,100166.72
2023-02-02T10:19:03.515Z,100144.16
2023-02-02T10:22:06.736Z,100137.72
2023-02-02T10:24:58.500Z,100147.16
2023-02-02T10:28:17.454Z,100140.09
2023-02-02T10:31:17.676Z,100156.53
2023-02-02T10:35:12.635Z,100158.91
2023-02-02T10:38:44.479Z,100156.00
2023-02-02T10:41:49.122Z,100159.53
2023-02-02T10:44:40.516Z,100167.66
2023-02-02T10:47:31.947Z,100143.06
2023-02-02T10:50:20.796Z,100165.56
2023-02-02T10:53:14.578Z,100189.44
2023-02-02T10:56:11.914Z,100180.16
2023-02-02T10:59:06.429Z,100234.53
2023-02-02T11:01:54.119Z,100222.59
2023-02-02T11:05:00.986Z,100224.34
2023-02-02T11:07:50.132Z,100244.66
2023-02-02T11:10:38.122Z,100247.00
2023-02-02T11:14:00.223Z,100212.19
2023-02-02T11:17:01.293Z,100210.00
2023-02-02T11:19:50.169Z,100218.00
2023-02-02T11:22:39.018Z,100211.56
2023-02-02T11:25:52.211Z,100209.59
2023-02-02T11:28:43.726Z,100207.88
2023-02-02T11:31:38.283Z,100213.47
2023-02-02T11:34:29.721Z,100211.81
2023-02-02T11:44:54.895Z,100233.50
2023-02-02T11:47:42.816Z,100234.66
2023-02-02T11:50:30.470Z,100248.03
2023-02-02T11:53:30.496Z,100262.84
2023-02-02T11:56:26.475Z,100277.03
2023-02-02T11:59:32.287Z,100257.88
2023-02-02T12:02:27.730Z,100276.72
2023-02-02T12:05:35.638Z,100285.41
2023-02-02T12:08:23.916Z,100284.03
2023-02-02T12:11:24.240Z,100289.63
2023-02-02T12:14:25.868Z,100281.03
2023-02-02T12:17:22.373Z,100279.75
2023-02-02T12:20:23.386Z,100281.34
2023-02-02T12:23:18.306Z,100250.84
2023-02-02T12:26:34.604Z,100283.44
2023-02-02T12:29:52.808Z,100275.41
2023-02-02T12:33:01.855Z,100298.44
2023-02-02T12:36:34.967Z,100311.41
2023-02-02T12:40:04.106Z,100308.91
2023-02-02T12:43:19.439Z,100308.56
2023-02-02T12:46:38.520Z,100261.59
2023-02-02T12:49:26.175Z,100292.66
2023-02-02T12:52:21.652Z,100280.22
2023-02-02T12:55:13.557Z,100273.06
2023-02-02T12:58:33.588Z,100253.50
2023-02-02T13:01:49.472Z,100247.34
2023-02-02T13:04:49.309Z,100264.44
2023-02-02T13:07:47.959Z,100247.66
2023-02-02T13:10:44.802Z,100262.06
2023-02-02T13:13:39.590Z,100265.25
2023-02-02T13:16:33.054Z,100246.97
2023-02-02T13:19:27.056Z,100253.78
2023-02-02T13:22:21.044Z,100265.88
2023-02-02T13:25:27.521Z,100190.44
2023-02-02T13:28:42.159Z,100267.22
2023-02-02T13:32:19.377Z,100259.03
2023-02-02T13:35:22.517Z,100270.59
2023-02-02T13:38:19.303Z,100262.19
2023-02-02T13:41:13.213Z,100250.69
2023-02-02T13:44:32.630Z,100290.59
2023-02-02T13:47:24.957Z,100295.63
2023-02-02T13:50:19.326Z,100305.78
2023-02-02T13:53:39.930Z,100295.97
2023-02-02T13:56:56.435Z,100256.44
2023-02-02T13:59:56.524Z,100301.28
2023-02-02T14:03:28.867Z,100300.38
2023-02-02T14:06:21.676Z,100289.94
2023-02-02T14:09:19.071Z,100296.66
2023-02-02T14:12:10.068Z,100307.97
2023-02-02T14:14:58.251Z,100301.75
2023-02-02T14:17:50.575Z,100295.38
2023-02-02T14:20:48.199Z,100302.94
2023-02-02T14:23:57.885Z,100277.56
2023-02-02T14:26:48.898Z,100298.91
2023-02-02T14:29:47.065Z,100298.53
2023-02-02T14:32:50.545Z,100303.81
2023-02-02T14:35:44.063Z,100316.41
2023-02-02T14:38:47.116Z,100331.28
2023-02-02T14:42:01.004Z,100330.16
2023-02-02T14:45:12.682Z,100325.97
2023-02-02T14:48:18.249Z,100321.47
2023-02-02T14:51:16.809Z,100334.34
2023-02-02T14:54:07.602Z,100355.66
2023-02-02T14:57:26.923Z,100329.44
2023-02-02T15:00:26.139Z,100327.63
2023-02-02T15:03:49.987Z,100342.47
2023-02-02T15:06:43.322Z,100323.50
2023-02-02T15:09:43.616Z,100329.19
2023-02-02T15:12:49.763Z,100332.53
2023-02-02T15:15:37.745Z,100353.09
2023-02-02T15:18:33.794Z,100347.16
2023-02-02T15:21:24.012Z,100337.00
2023-02-02T15:24:23.045Z,100343.13
2023-02-02T15:27:17.995Z,100337.66
2023-02-02T15:30:09.673Z,100327.19
2023-02-02T15:32:57.716Z,100328.75
2023-02-02T15:35:48.702Z,100321.72
2023-02-02T15:38:41.387Z,100328.19
2023-02-02T15:41:34.351Z,100322.84
2023-02-02T15:44:28.629Z,100332.16
2023-02-02T15:47:19.282Z,100318.97
2023-02-02T15:50:20.618Z,100307.47
2023-02-02T15:53:18.974Z,100334.09
2023-02-02T15:56:23.501Z,100337.94
2023-02-02T15:59:28.849Z,100328.53
2023-02-02T16:02:39.911Z,100344.94
2023-02-02T16:05:36.844Z,100295.56
2023-02-02T16:08:34.498Z,100338.19
2023-02-02T16:11:24.129Z,100301.94
2023-02-02T16:14:21.919Z,100358.13
2023-02-02T16:17:24.198Z,100321.16
2023-02-02T16:20:16.217Z,100352.78
2023-02-02T16:23:10.343Z,100365.03
2023-02-02T16:26:01.642Z,100379.69
2023-02-02T16:28:49.631Z,100372.75
2023-02-02T16:31:39.397Z,100375.88
2023-02-02T16:34:42.297Z,100364.88
2023-02-02T16:37:32.649Z,100350.91
2023-02-02T16:40:27.564Z,100360.78
2023-02-02T16:43:20.731Z,100374.84
2023-02-02T16:46:17.661Z,100369.19
2023-02-02T16:49:07.745Z,100384.66
2023-02-02T16:52:18.439Z,100383.84
2023-02-02T16:55:18.951Z,100387.66
2023-02-02T16:58:06.741Z,100360.75
2023-02-02T17:01:17.402Z,100391.50
2023-02-02T17:04:16.657Z,100388.94
2023-02-02T17:07:15.680Z,100390.88
2023-02-02T17:10:15.357Z,100376.78
2023-02-02T17:13:23.987Z,100419.59
2023-02-02T17:16:16.561Z,100372.09
2023-02-02T17:19:04.329Z,100402.44
2023-02-02T17:21:52.064Z,100409.00
2023-02-02T17:24:43.158Z,100406.38
2023-02-02T17:27:34.194Z,100407.63
2023-02-02T17:30:22.239Z,100388.97
2023-02-02T17:33:17.216Z,100400.84
2023-02-02T17:36:06.109Z,100392.09
2023-02-02T17:38:53.669Z,100394.81
2023-02-02T17:41:41.812Z,100417.78
2023-02-02T17:44:29.549Z,100379.19
2023-02-02T17:47:17.351Z,100398.56
2023-02-02T17:50:05.244Z,100404.22
2023-02-02T17:52:53.460Z,100412.13
2023-02-02T17:55:42.847Z,100408.06
2023-02-02T17:58:30.590Z,100411.59
2023-02-02T18:01:18.593Z,100410.56
2023-02-02T18:04:06.620Z,100420.31
2023-02-02T18:07:04.550Z,100421.16
2023-02-02T18:09:58.944Z,100401.56
2023-02-02T18:12:46.574Z,100437.81
2023-02-02T18:15:39.818Z,100457.69
2023-02-02T18:18:29.995Z,100458.50
2023-02-02T18:21:17.945Z,100460.25
2023-02-02T18:24:05.681Z,100464.25
2023-02-02T18:26:54.767Z,100468.38
2023-02-02T18:29:42.957Z,100470.88
2023-02-02T18:32:30.839Z,100464.22
2023-02-02T18:35:18.540Z,100476.78
2023-02-02T18:38:06.356Z,100482.13
2023-02-02T18:40:58.004Z,100494.44
2023-02-02T18:43:45.814Z,100506.69
2023-02-02T18:46:36.563Z,100492.78
2023-02-02T18:50:05.773Z,100489.00
2023-02-02T18:53:00.626Z,100496.09
2023-02-02T18:55:48.424Z,100500.16
2023-02-02T18:58:37.221Z,100463.00
2023-02-02T19:01:28.562Z,100490.28
2023-02-02T19:04:16.623Z,100487.19
2023-02-02T19:07:24.319Z,100504.41
2023-02-02T19:10:12.169Z,100504.03
2023-02-02T19:13:07.057Z,100511.50
2023-02-02T19:16:03.800Z,100514.66
2023-02-02T19:18:54.326Z,100510.41
2023-02-02T19:21:46.058Z,100485.41
2023-02-02T19:24:40.603Z,100523.94
2023-02-02T19:27:28.291Z,100525.00
2023-02-02T19:30:19.994Z,100528.38
2023-02-02T19:33:12.723Z,100534.28
2023-02-02T19:36:00.549Z,100514.75
2023-02-02T19:38:50.014Z,100533.03
2023-02-02T19:41:40.920Z,100539.06
2023-02-02T19:44:31.967Z,100537.38
2023-02-02T19:47:32.532Z,100538.91
2023-02-02T19:50:26.019Z,100544.00
2023-02-02T19:53:20.873Z,100541.38
2023-02-02T19:56:26.126Z,100530.22
2023-02-02T19:59:20.049Z,100542.34
2023-02-02T20:02:27.302Z,100529.50
2023-02-02T20:05:27.859Z,100515.06
2023-02-02T20:08:28.551Z,100523.97
2023-02-02T20:11:24.039Z,100490.22
2023-02-02T20:14:21.833Z,100515.72
2023-02-02T20:17:37.756Z,100511.50
2023-02-02T20:20:46.400Z,100505.63
2023-02-02T20:23:43.377Z,100504.97
2023-02-02T20:26:37.824Z,100478.78
2023-02-02T20:29:41.221Z,100523.34
2023-02-02T20:32:38.846Z,100493.91
2023-02-02T20:35:39.937Z,100527.28
2023-02-02T20:38:36.061Z,100525.81
2023-02-02T20:41:23.856Z,100524.16
2023-02-02T20:47:24.284Z,100498.53
2023-02-02T20:50:32.217Z,100503.69
2023-02-02T20:53:24.953Z,100488.59
2023-02-02T20:56:12.678Z,100491.47
2023-02-02T20:59:01.396Z,100491.59
2023-02-02T21:01:50.370Z,100495.81
2023-02-02T21:04:39.354Z,100500.00
2023-02-02T21:07:29.976Z,100498.81
2023-02-02T21:10:17.732Z,100502.09
2023-02-02T21:13:05.371Z,100495.66
2023-02-02T21:15:55.483Z,100492.28
2023-02-02T21:18:47.179Z,100489.56
2023-02-02T21:21:35.252Z,100494.88
2023-02-02T21:24:24.325Z,100494.88
2023-02-02T21:27:12.151Z,100498.59
2023-02-02T21:29:59.840Z,100517.69
2023-02-02T21:32:47.987Z,100519.59
2023-02-02T21:35:35.777Z,100490.19
2023-02-02T21:38:25.583Z,100523.91
2023-02-02T21:41:15.786Z,100537.00
2023-02-02T21:44:09.257Z,100548.63
2023-02-02T21:46:57.039Z,100547.59
2023-02-02T21:49:44.695Z,100538.88
2023-02-02T21:52:36.143Z,100534.91
2023-02-02T21:55:44.869Z,100538.50
2023-02-02T21:58:39.992Z,100544.66
2023-02-02T22:01:34.752Z,100547.00
2023-02-02T22:04:25.572Z,100542.56
2023-02-02T22:07:16.067Z,100541.06
2023-02-02T22:10:28.184Z,100528.41
2023-02-02T22:13:21.642Z,100539.13
2023-02-02T22:16:19.585Z,100519.28
2023-02-02T22:19:27.177Z,100480.97
2023-02-02T22:22:16.431Z,100505.16
2023-02-02T22:25:34.619Z,100532.88
2023-02-02T22:28:40.185Z,100526.00
2023-02-02T22:31:28.021Z,100538.25
2023-02-02T22:34:15.660Z,100524.69
2023-02-02T22:37:03.529Z,100525.81
2023-02-02T22:39:51.123Z,100512.53
2023-02-02T22:42:38.894Z,100512.66
2023-02-02T22:45:26.984Z,100491.38
2023-02-02T22:48:15.684Z,100517.91
2023-02-02T22:51:03.253Z,100494.53
2023-02-02T22:53:51.047Z,100495.97
2023-02-02T22:56:40.360Z,100501.47
2023-02-02T22:59:28.147Z,100497.94
2023-02-02T23:02:15.881Z,100466.69
2023-02-02T23:05:04.267Z,100509.88
2023-02-02T23:07:56.471Z,100506.06
2023-02-02T23:10:44.092Z,100512.53
2023-02-02T23:13:31.642Z,100503.44
2023-02-02T23:16:19.487Z,100498.94
2023-02-02T23:19:07.107Z,100512.03
2023-02-02T23:21:54.969Z,100513.78
2023-02-02T23:24:42.691Z,100508.91
2023-02-02T23:27:33.158Z,100513.53
2023-02-02T23:30:22.398Z,100506.78
2023-02-02T23:33:10.274Z,100508.19
2023-02-02T23:35:57.863Z,100508.78
2023-02-02T23:38:48.669Z,100480.47
2023-02-02T23:41:36.321Z,100526.38
2023-02-02T23:44:24.188Z,100517.03
2023-02-02T23:47:12.012Z,100514.31
2023-02-02T23:50:00.040Z,100521.22
2023-02-02T23:52:47.731Z,100523.28
2023-02-02T23:55:35.927Z,100509.50
2023-02-02T23:58:23.515Z,100517.00
